sensor_id;sensor_type;location;lat;lon;timestamp;temperature;humidity
66522;SHT31;53349;53.538;8.584;2023-12-14T00:01:23;4.67;88.58
66522;SHT31;53349;53.538;8.584;2023-12-14T00:03:49;4.69;88.64
66522;SHT31;53349;53.538;8.584;2023-12-14T00:06:14;4.66;88.67
66522;SHT31;53349;53.538;8.584;2023-12-14T00:08:40;4.66;88.34
66522;SHT31;53349;53.538;8.584;2023-12-14T00:11:09;4.64;88.63
66522;SHT31;53349;53.538;8.584;2023-12-14T00:13:35;4.60;88.82
66522;SHT31;53349;53.538;8.584;2023-12-14T00:16:02;4.59;88.91
66522;SHT31;53349;53.538;8.584;2023-12-14T00:18:28;4.61;88.97
66522;SHT31;53349;53.538;8.584;2023-12-14T00:20:54;4.64;89.11
66522;SHT31;53349;53.538;8.584;2023-12-14T00:23:22;4.64;88.89
66522;SHT31;53349;53.538;8.584;2023-12-14T00:25:50;4.63;88.79
66522;SHT31;53349;53.538;8.584;2023-12-14T00:28:16;4.59;89.00
66522;SHT31;53349;53.538;8.584;2023-12-14T00:30:42;4.63;89.05
66522;SHT31;53349;53.538;8.584;2023-12-14T00:33:08;4.66;89.01
66522;SHT31;53349;53.538;8.584;2023-12-14T00:35:35;4.66;89.16
66522;SHT31;53349;53.538;8.584;2023-12-14T00:38:01;4.63;89.03
66522;SHT31;53349;53.538;8.584;2023-12-14T00:40:26;4.64;89.19
66522;SHT31;53349;53.538;8.584;2023-12-14T00:42:52;4.61;89.22
66522;SHT31;53349;53.538;8.584;2023-12-14T00:45:17;4.66;89.27
66522;SHT31;53349;53.538;8.584;2023-12-14T00:47:43;4.64;88.99
66522;SHT31;53349;53.538;8.584;2023-12-14T00:50:08;4.63;88.83
66522;SHT31;53349;53.538;8.584;2023-12-14T00:52:34;4.66;89.02
66522;SHT31;53349;53.538;8.584;2023-12-14T00:55:00;4.69;88.83
66522;SHT31;53349;53.538;8.584;2023-12-14T00:57:25;4.71;88.92
66522;SHT31;53349;53.538;8.584;2023-12-14T00:59:50;4.71;88.92
66522;SHT31;53349;53.538;8.584;2023-12-14T01:02:16;4.71;88.75
66522;SHT31;53349;53.538;8.584;2023-12-14T01:04:41;4.70;88.54
66522;SHT31;53349;53.538;8.584;2023-12-14T01:07:08;4.73;88.86
66522;SHT31;53349;53.538;8.584;2023-12-14T01:09:33;4.69;88.91
66522;SHT31;53349;53.538;8.584;2023-12-14T01:11:59;4.69;88.91
66522;SHT31;53349;53.538;8.584;2023-12-14T01:14:24;4.67;88.85
66522;SHT31;53349;53.538;8.584;2023-12-14T01:16:50;4.71;88.81
66522;SHT31;53349;53.538;8.584;2023-12-14T01:19:15;4.71;88.73
66522;SHT31;53349;53.538;8.584;2023-12-14T01:21:40;4.74;88.69
66522;SHT31;53349;53.538;8.584;2023-12-14T01:24:08;4.74;88.81
66522;SHT31;53349;53.538;8.584;2023-12-14T01:26:34;4.76;88.76
66522;SHT31;53349;53.538;8.584;2023-12-14T01:28:59;4.73;88.86
66522;SHT31;53349;53.538;8.584;2023-12-14T01:31:25;4.76;88.78
66522;SHT31;53349;53.538;8.584;2023-12-14T01:33:52;4.77;88.67
66522;SHT31;53349;53.538;8.584;2023-12-14T01:36:21;4.74;88.65
66522;SHT31;53349;53.538;8.584;2023-12-14T01:38:46;4.77;88.74
66522;SHT31;53349;53.538;8.584;2023-12-14T01:41:12;4.76;88.68
66522;SHT31;53349;53.538;8.584;2023-12-14T01:43:37;4.77;88.65
66522;SHT31;53349;53.538;8.584;2023-12-14T01:46:03;4.77;88.82
66522;SHT31;53349;53.538;8.584;2023-12-14T01:48:30;4.79;88.72
66522;SHT31;53349;53.538;8.584;2023-12-14T01:50:56;4.81;88.46
66522;SHT31;53349;53.538;8.584;2023-12-14T01:53:21;4.80;88.56
66522;SHT31;53349;53.538;8.584;2023-12-14T01:55:48;4.79;88.71
66522;SHT31;53349;53.538;8.584;2023-12-14T01:58:13;4.79;88.68
66522;SHT31;53349;53.538;8.584;2023-12-14T02:01:22;4.74;88.72
66522;SHT31;53349;53.538;8.584;2023-12-14T02:04:00;4.74;88.86
66522;SHT31;53349;53.538;8.584;2023-12-14T02:06:26;4.76;88.90
66522;SHT31;53349;53.538;8.584;2023-12-14T02:08:52;4.74;88.98
66522;SHT31;53349;53.538;8.584;2023-12-14T02:11:18;4.79;88.97
66522;SHT31;53349;53.538;8.584;2023-12-14T02:13:43;4.77;88.98
66522;SHT31;53349;53.538;8.584;2023-12-14T02:16:09;4.77;89.03
66522;SHT31;53349;53.538;8.584;2023-12-14T02:18:34;4.74;89.13
66522;SHT31;53349;53.538;8.584;2023-12-14T02:20:59;4.77;89.17
66522;SHT31;53349;53.538;8.584;2023-12-14T02:23:25;4.77;89.22
66522;SHT31;53349;53.538;8.584;2023-12-14T02:25:50;4.77;89.31
66522;SHT31;53349;53.538;8.584;2023-12-14T02:28:18;4.76;89.39
66522;SHT31;53349;53.538;8.584;2023-12-14T02:30:43;4.79;89.35
66522;SHT31;53349;53.538;8.584;2023-12-14T02:33:08;4.79;89.38
66522;SHT31;53349;53.538;8.584;2023-12-14T02:35:35;4.79;89.47
66522;SHT31;53349;53.538;8.584;2023-12-14T02:38:00;4.79;89.45
66522;SHT31;53349;53.538;8.584;2023-12-14T02:40:27;4.76;89.36
66522;SHT31;53349;53.538;8.584;2023-12-14T02:42:52;4.80;89.48
66522;SHT31;53349;53.538;8.584;2023-12-14T02:45:17;4.80;89.47
66522;SHT31;53349;53.538;8.584;2023-12-14T02:47:43;4.77;89.53
66522;SHT31;53349;53.538;8.584;2023-12-14T02:50:08;4.80;89.56
66522;SHT31;53349;53.538;8.584;2023-12-14T02:52:35;4.76;89.47
66522;SHT31;53349;53.538;8.584;2023-12-14T02:55:00;4.81;89.49
66522;SHT31;53349;53.538;8.584;2023-12-14T02:57:26;4.81;89.59
66522;SHT31;53349;53.538;8.584;2023-12-14T02:59:51;4.80;89.48
66522;SHT31;53349;53.538;8.584;2023-12-14T03:02:18;4.81;89.51
66522;SHT31;53349;53.538;8.584;2023-12-14T03:04:43;4.81;89.50
66522;SHT31;53349;53.538;8.584;2023-12-14T03:07:09;4.80;89.47
66522;SHT31;53349;53.538;8.584;2023-12-14T03:09:38;4.81;89.50
66522;SHT31;53349;53.538;8.584;2023-12-14T03:12:05;4.79;89.58
66522;SHT31;53349;53.538;8.584;2023-12-14T03:14:32;4.81;89.55
66522;SHT31;53349;53.538;8.584;2023-12-14T03:16:58;4.83;89.40
66522;SHT31;53349;53.538;8.584;2023-12-14T03:19:23;4.79;89.33
66522;SHT31;53349;53.538;8.584;2023-12-14T03:21:48;4.80;89.38
66522;SHT31;53349;53.538;8.584;2023-12-14T03:24:16;4.81;89.51
66522;SHT31;53349;53.538;8.584;2023-12-14T03:26:45;4.80;89.46
66522;SHT31;53349;53.538;8.584;2023-12-14T03:29:10;4.83;89.51
66522;SHT31;53349;53.538;8.584;2023-12-14T03:31:36;4.83;89.60
66522;SHT31;53349;53.538;8.584;2023-12-14T03:34:01;4.80;89.65
66522;SHT31;53349;53.538;8.584;2023-12-14T03:36:27;4.81;89.70
66522;SHT31;53349;53.538;8.584;2023-12-14T03:38:53;4.81;89.64
66522;SHT31;53349;53.538;8.584;2023-12-14T03:41:20;4.79;89.59
66522;SHT31;53349;53.538;8.584;2023-12-14T03:43:45;4.77;89.52
66522;SHT31;53349;53.538;8.584;2023-12-14T03:46:11;4.80;89.56
66522;SHT31;53349;53.538;8.584;2023-12-14T03:48:37;4.80;89.45
66522;SHT31;53349;53.538;8.584;2023-12-14T03:51:04;4.79;89.38
66522;SHT31;53349;53.538;8.584;2023-12-14T03:53:30;4.79;89.28
66522;SHT31;53349;53.538;8.584;2023-12-14T03:55:57;4.77;89.34
66522;SHT31;53349;53.538;8.584;2023-12-14T03:58:24;4.74;89.37
66522;SHT31;53349;53.538;8.584;2023-12-14T04:00:50;4.73;89.48
66522;SHT31;53349;53.538;8.584;2023-12-14T04:03:16;4.74;89.52
66522;SHT31;53349;53.538;8.584;2023-12-14T04:05:41;4.73;89.47
66522;SHT31;53349;53.538;8.584;2023-12-14T04:08:07;4.74;89.57
66522;SHT31;53349;53.538;8.584;2023-12-14T04:10:32;4.74;89.46
66522;SHT31;53349;53.538;8.584;2023-12-14T04:12:59;4.74;89.59
66522;SHT31;53349;53.538;8.584;2023-12-14T04:15:24;4.74;89.63
66522;SHT31;53349;53.538;8.584;2023-12-14T04:17:51;4.71;89.69
66522;SHT31;53349;53.538;8.584;2023-12-14T04:20:16;4.71;89.72
66522;SHT31;53349;53.538;8.584;2023-12-14T04:22:44;4.69;89.71
66522;SHT31;53349;53.538;8.584;2023-12-14T04:25:10;4.71;89.98
66522;SHT31;53349;53.538;8.584;2023-12-14T04:27:35;4.73;89.93
66522;SHT31;53349;53.538;8.584;2023-12-14T04:30:02;4.73;89.92
66522;SHT31;53349;53.538;8.584;2023-12-14T04:32:28;4.73;89.87
66522;SHT31;53349;53.538;8.584;2023-12-14T04:34:53;4.73;89.90
66522;SHT31;53349;53.538;8.584;2023-12-14T04:37:27;4.77;89.85
66522;SHT31;53349;53.538;8.584;2023-12-14T04:39:54;4.76;89.77
66522;SHT31;53349;53.538;8.584;2023-12-14T04:42:19;4.76;89.90
66522;SHT31;53349;53.538;8.584;2023-12-14T04:44:47;4.74;89.80
66522;SHT31;53349;53.538;8.584;2023-12-14T04:47:12;4.74;89.77
66522;SHT31;53349;53.538;8.584;2023-12-14T04:49:37;4.74;89.83
66522;SHT31;53349;53.538;8.584;2023-12-14T04:52:03;4.77;89.72
66522;SHT31;53349;53.538;8.584;2023-12-14T04:54:33;4.76;89.67
66522;SHT31;53349;53.538;8.584;2023-12-14T04:56:59;4.71;89.46
66522;SHT31;53349;53.538;8.584;2023-12-14T04:59:24;4.71;89.80
66522;SHT31;53349;53.538;8.584;2023-12-14T05:01:52;4.70;89.82
66522;SHT31;53349;53.538;8.584;2023-12-14T05:04:17;4.74;89.94
66522;SHT31;53349;53.538;8.584;2023-12-14T05:06:49;4.74;90.03
66522;SHT31;53349;53.538;8.584;2023-12-14T05:09:14;4.74;89.85
66522;SHT31;53349;53.538;8.584;2023-12-14T05:11:41;4.76;89.83
66522;SHT31;53349;53.538;8.584;2023-12-14T05:14:06;4.76;89.84
66522;SHT31;53349;53.538;8.584;2023-12-14T05:16:33;4.77;89.79
66522;SHT31;53349;53.538;8.584;2023-12-14T05:18:58;4.79;89.66
66522;SHT31;53349;53.538;8.584;2023-12-14T05:21:24;4.77;89.57
66522;SHT31;53349;53.538;8.584;2023-12-14T05:23:49;4.79;89.58
66522;SHT31;53349;53.538;8.584;2023-12-14T05:26:15;4.76;89.61
66522;SHT31;53349;53.538;8.584;2023-12-14T05:28:40;4.74;89.63
66522;SHT31;53349;53.538;8.584;2023-12-14T05:31:06;4.73;89.59
66522;SHT31;53349;53.538;8.584;2023-12-14T05:33:31;4.76;89.63
66522;SHT31;53349;53.538;8.584;2023-12-14T05:35:57;4.76;89.56
66522;SHT31;53349;53.538;8.584;2023-12-14T05:38:22;4.79;89.53
66522;SHT31;53349;53.538;8.584;2023-12-14T05:40:47;4.79;89.56
66522;SHT31;53349;53.538;8.584;2023-12-14T05:43:13;4.79;89.56
66522;SHT31;53349;53.538;8.584;2023-12-14T05:45:39;4.77;89.47
66522;SHT31;53349;53.538;8.584;2023-12-14T05:48:05;4.74;89.60
66522;SHT31;53349;53.538;8.584;2023-12-14T05:50:31;4.79;89.71
66522;SHT31;53349;53.538;8.584;2023-12-14T05:52:56;4.80;89.64
66522;SHT31;53349;53.538;8.584;2023-12-14T05:55:22;4.77;89.47
66522;SHT31;53349;53.538;8.584;2023-12-14T05:57:49;4.83;89.38
66522;SHT31;53349;53.538;8.584;2023-12-14T06:00:14;4.79;89.26
66522;SHT31;53349;53.538;8.584;2023-12-14T06:02:41;4.76;89.30
66522;SHT31;53349;53.538;8.584;2023-12-14T06:05:11;4.74;89.29
66522;SHT31;53349;53.538;8.584;2023-12-14T06:07:36;4.76;89.36
66522;SHT31;53349;53.538;8.584;2023-12-14T06:10:02;4.73;89.49
66522;SHT31;53349;53.538;8.584;2023-12-14T06:12:27;4.76;89.41
66522;SHT31;53349;53.538;8.584;2023-12-14T06:14:55;4.77;89.32
66522;SHT31;53349;53.538;8.584;2023-12-14T06:17:25;4.77;89.41
66522;SHT31;53349;53.538;8.584;2023-12-14T06:19:50;4.77;89.31
66522;SHT31;53349;53.538;8.584;2023-12-14T06:22:15;4.76;89.20
66522;SHT31;53349;53.538;8.584;2023-12-14T06:24:41;4.73;89.29
66522;SHT31;53349;53.538;8.584;2023-12-14T06:27:07;4.76;89.50
66522;SHT31;53349;53.538;8.584;2023-12-14T06:29:32;4.79;89.38
66522;SHT31;53349;53.538;8.584;2023-12-14T06:31:57;4.76;89.26
66522;SHT31;53349;53.538;8.584;2023-12-14T06:34:23;4.77;89.34
66522;SHT31;53349;53.538;8.584;2023-12-14T06:36:48;4.77;89.07
66522;SHT31;53349;53.538;8.584;2023-12-14T06:39:13;4.79;89.28
66522;SHT31;53349;53.538;8.584;2023-12-14T06:41:39;4.77;89.30
66522;SHT31;53349;53.538;8.584;2023-12-14T06:44:05;4.77;89.37
66522;SHT31;53349;53.538;8.584;2023-12-14T06:46:30;4.81;89.35
66522;SHT31;53349;53.538;8.584;2023-12-14T06:48:56;4.79;89.36
66522;SHT31;53349;53.538;8.584;2023-12-14T06:51:21;4.81;89.49
66522;SHT31;53349;53.538;8.584;2023-12-14T06:53:48;4.79;89.05
66522;SHT31;53349;53.538;8.584;2023-12-14T06:56:15;4.80;89.31
66522;SHT31;53349;53.538;8.584;2023-12-14T06:58:41;4.80;89.41
66522;SHT31;53349;53.538;8.584;2023-12-14T07:01:08;4.81;89.51
66522;SHT31;53349;53.538;8.584;2023-12-14T07:03:36;4.81;89.44
66522;SHT31;53349;53.538;8.584;2023-12-14T07:06:02;4.79;89.01
66522;SHT31;53349;53.538;8.584;2023-12-14T07:08:31;4.79;89.24
66522;SHT31;53349;53.538;8.584;2023-12-14T07:10:56;4.80;89.25
66522;SHT31;53349;53.538;8.584;2023-12-14T07:13:22;4.74;89.24
66522;SHT31;53349;53.538;8.584;2023-12-14T07:15:47;4.79;89.23
66522;SHT31;53349;53.538;8.584;2023-12-14T07:18:24;4.79;89.25
66522;SHT31;53349;53.538;8.584;2023-12-14T07:20:49;4.74;89.23
66522;SHT31;53349;53.538;8.584;2023-12-14T07:23:15;4.76;89.32
66522;SHT31;53349;53.538;8.584;2023-12-14T07:25:40;4.76;89.02
66522;SHT31;53349;53.538;8.584;2023-12-14T07:28:07;4.76;89.14
66522;SHT31;53349;53.538;8.584;2023-12-14T07:30:32;4.76;89.36
66522;SHT31;53349;53.538;8.584;2023-12-14T07:32:58;4.79;89.31
66522;SHT31;53349;53.538;8.584;2023-12-14T07:35:26;4.81;89.30
66522;SHT31;53349;53.538;8.584;2023-12-14T07:37:53;4.80;89.32
66522;SHT31;53349;53.538;8.584;2023-12-14T07:40:19;4.80;89.32
66522;SHT31;53349;53.538;8.584;2023-12-14T07:42:44;4.81;89.35
66522;SHT31;53349;53.538;8.584;2023-12-14T07:45:11;4.83;89.34
66522;SHT31;53349;53.538;8.584;2023-12-14T07:47:58;4.85;89.10
66522;SHT31;53349;53.538;8.584;2023-12-14T07:50:23;4.83;88.93
66522;SHT31;53349;53.538;8.584;2023-12-14T07:52:49;4.83;88.93
66522;SHT31;53349;53.538;8.584;2023-12-14T07:55:15;4.81;88.99
66522;SHT31;53349;53.538;8.584;2023-12-14T07:57:45;4.80;88.94
66522;SHT31;53349;53.538;8.584;2023-12-14T08:00:10;4.84;88.95
66522;SHT31;53349;53.538;8.584;2023-12-14T08:02:36;4.85;89.00
66522;SHT31;53349;53.538;8.584;2023-12-14T08:05:02;4.85;89.01
66522;SHT31;53349;53.538;8.584;2023-12-14T08:07:32;4.85;88.94
66522;SHT31;53349;53.538;8.584;2023-12-14T08:09:58;4.84;88.85
66522;SHT31;53349;53.538;8.584;2023-12-14T08:12:23;4.85;89.03
66522;SHT31;53349;53.538;8.584;2023-12-14T08:14:50;4.88;89.08
66522;SHT31;53349;53.538;8.584;2023-12-14T08:17:18;4.88;89.10
66522;SHT31;53349;53.538;8.584;2023-12-14T08:19:44;4.87;89.13
66522;SHT31;53349;53.538;8.584;2023-12-14T08:22:10;4.91;89.09
66522;SHT31;53349;53.538;8.584;2023-12-14T08:24:35;4.92;89.23
66522;SHT31;53349;53.538;8.584;2023-12-14T08:27:01;4.94;89.17
66522;SHT31;53349;53.538;8.584;2023-12-14T08:29:28;4.97;89.04
66522;SHT31;53349;53.538;8.584;2023-12-14T08:31:54;4.95;88.90
66522;SHT31;53349;53.538;8.584;2023-12-14T08:34:19;4.98;88.90
66522;SHT31;53349;53.538;8.584;2023-12-14T08:36:45;4.98;88.87
66522;SHT31;53349;53.538;8.584;2023-12-14T08:39:11;5.01;89.09
66522;SHT31;53349;53.538;8.584;2023-12-14T08:41:37;5.05;89.10
66522;SHT31;53349;53.538;8.584;2023-12-14T08:44:04;5.02;89.19
66522;SHT31;53349;53.538;8.584;2023-12-14T08:46:41;5.02;89.19
66522;SHT31;53349;53.538;8.584;2023-12-14T08:49:07;5.05;89.18
66522;SHT31;53349;53.538;8.584;2023-12-14T08:51:33;5.07;89.00
66522;SHT31;53349;53.538;8.584;2023-12-14T08:53:58;5.11;89.17
66522;SHT31;53349;53.538;8.584;2023-12-14T08:56:23;5.12;88.84
66522;SHT31;53349;53.538;8.584;2023-12-14T08:58:49;5.15;88.72
66522;SHT31;53349;53.538;8.584;2023-12-14T09:01:23;5.20;88.54
66522;SHT31;53349;53.538;8.584;2023-12-14T09:03:49;5.18;88.44
66522;SHT31;53349;53.538;8.584;2023-12-14T09:06:18;5.24;88.47
66522;SHT31;53349;53.538;8.584;2023-12-14T09:08:44;5.21;87.91
66522;SHT31;53349;53.538;8.584;2023-12-14T09:11:09;5.18;88.05
66522;SHT31;53349;53.538;8.584;2023-12-14T09:13:35;5.22;88.26
66522;SHT31;53349;53.538;8.584;2023-12-14T09:16:00;5.24;88.28
66522;SHT31;53349;53.538;8.584;2023-12-14T09:18:26;5.22;88.04
66522;SHT31;53349;53.538;8.584;2023-12-14T09:20:51;5.24;88.08
66522;SHT31;53349;53.538;8.584;2023-12-14T09:23:17;5.25;87.99
66522;SHT31;53349;53.538;8.584;2023-12-14T09:25:42;5.24;87.96
66522;SHT31;53349;53.538;8.584;2023-12-14T09:28:09;5.27;88.05
66522;SHT31;53349;53.538;8.584;2023-12-14T09:30:34;5.25;88.14
66522;SHT31;53349;53.538;8.584;2023-12-14T09:32:59;5.31;87.97
66522;SHT31;53349;53.538;8.584;2023-12-14T09:35:25;5.32;88.03
66522;SHT31;53349;53.538;8.584;2023-12-14T09:37:50;5.32;88.04
66522;SHT31;53349;53.538;8.584;2023-12-14T09:40:15;5.34;88.10
66522;SHT31;53349;53.538;8.584;2023-12-14T09:42:41;5.29;87.98
66522;SHT31;53349;53.538;8.584;2023-12-14T09:45:07;5.32;87.90
66522;SHT31;53349;53.538;8.584;2023-12-14T09:47:33;5.31;87.74
66522;SHT31;53349;53.538;8.584;2023-12-14T09:50:02;5.34;87.86
66522;SHT31;53349;53.538;8.584;2023-12-14T09:52:28;5.32;88.03
66522;SHT31;53349;53.538;8.584;2023-12-14T09:54:53;5.32;88.04
66522;SHT31;53349;53.538;8.584;2023-12-14T09:57:21;5.35;87.99
66522;SHT31;53349;53.538;8.584;2023-12-14T09:59:53;5.34;88.04
66522;SHT31;53349;53.538;8.584;2023-12-14T10:02:19;5.34;88.05
66522;SHT31;53349;53.538;8.584;2023-12-14T10:04:44;5.38;88.03
66522;SHT31;53349;53.538;8.584;2023-12-14T10:07:11;5.38;87.75
66522;SHT31;53349;53.538;8.584;2023-12-14T10:09:37;5.35;87.66
66522;SHT31;53349;53.538;8.584;2023-12-14T10:12:06;5.35;87.62
66522;SHT31;53349;53.538;8.584;2023-12-14T10:14:32;5.34;87.62
66522;SHT31;53349;53.538;8.584;2023-12-14T10:16:58;5.34;87.77
66522;SHT31;53349;53.538;8.584;2023-12-14T10:19:23;5.35;87.63
66522;SHT31;53349;53.538;8.584;2023-12-14T10:21:51;5.36;87.61
66522;SHT31;53349;53.538;8.584;2023-12-14T10:24:17;5.36;87.52
66522;SHT31;53349;53.538;8.584;2023-12-14T10:26:44;5.34;87.40
66522;SHT31;53349;53.538;8.584;2023-12-14T10:29:11;5.34;87.75
66522;SHT31;53349;53.538;8.584;2023-12-14T10:31:37;5.38;87.65
66522;SHT31;53349;53.538;8.584;2023-12-14T10:34:03;5.42;87.84
66522;SHT31;53349;53.538;8.584;2023-12-14T10:36:32;5.41;87.77
66522;SHT31;53349;53.538;8.584;2023-12-14T10:38:59;5.43;87.76
66522;SHT31;53349;53.538;8.584;2023-12-14T10:41:27;5.41;87.71
66522;SHT31;53349;53.538;8.584;2023-12-14T10:43:56;5.41;87.56
66522;SHT31;53349;53.538;8.584;2023-12-14T10:46:24;5.39;87.57
66522;SHT31;53349;53.538;8.584;2023-12-14T10:48:51;5.41;87.80
66522;SHT31;53349;53.538;8.584;2023-12-14T10:51:22;5.42;87.70
66522;SHT31;53349;53.538;8.584;2023-12-14T10:53:48;5.41;87.51
66522;SHT31;53349;53.538;8.584;2023-12-14T10:56:15;5.48;87.59
66522;SHT31;53349;53.538;8.584;2023-12-14T10:58:51;5.49;87.48
66522;SHT31;53349;53.538;8.584;2023-12-14T11:01:21;5.48;87.35
66522;SHT31;53349;53.538;8.584;2023-12-14T11:03:48;5.51;87.89
66522;SHT31;53349;53.538;8.584;2023-12-14T11:08:56;5.55;87.10
66522;SHT31;53349;53.538;8.584;2023-12-14T11:11:27;5.53;87.46
66522;SHT31;53349;53.538;8.584;2023-12-14T11:13:53;5.55;87.41
66522;SHT31;53349;53.538;8.584;2023-12-14T11:16:22;5.55;87.40
66522;SHT31;53349;53.538;8.584;2023-12-14T11:18:48;5.58;87.43
66522;SHT31;53349;53.538;8.584;2023-12-14T11:21:35;5.58;87.26
66522;SHT31;53349;53.538;8.584;2023-12-14T11:24:01;5.59;87.25
66522;SHT31;53349;53.538;8.584;2023-12-14T11:26:26;5.59;87.10
66522;SHT31;53349;53.538;8.584;2023-12-14T11:28:52;5.59;87.20
66522;SHT31;53349;53.538;8.584;2023-12-14T11:31:18;5.59;87.14
66522;SHT31;53349;53.538;8.584;2023-12-14T11:33:46;5.58;87.26
66522;SHT31;53349;53.538;8.584;2023-12-14T11:36:12;5.59;87.03
66522;SHT31;53349;53.538;8.584;2023-12-14T11:38:37;5.59;86.82
66522;SHT31;53349;53.538;8.584;2023-12-14T11:41:03;5.59;87.04
66522;SHT31;53349;53.538;8.584;2023-12-14T11:43:29;5.59;87.01
66522;SHT31;53349;53.538;8.584;2023-12-14T11:45:58;5.60;86.67
66522;SHT31;53349;53.538;8.584;2023-12-14T11:48:25;5.60;86.84
66522;SHT31;53349;53.538;8.584;2023-12-14T11:50:51;5.63;86.84
66522;SHT31;53349;53.538;8.584;2023-12-14T11:53:17;5.62;86.97
66522;SHT31;53349;53.538;8.584;2023-12-14T11:55:44;5.67;87.09
66522;SHT31;53349;53.538;8.584;2023-12-14T11:58:13;5.66;87.06
66522;SHT31;53349;53.538;8.584;2023-12-14T12:00:41;5.67;86.98
66522;SHT31;53349;53.538;8.584;2023-12-14T12:05:46;5.70;87.00
66522;SHT31;53349;53.538;8.584;2023-12-14T12:08:15;5.73;86.97
66522;SHT31;53349;53.538;8.584;2023-12-14T12:10:46;5.72;86.65
66522;SHT31;53349;53.538;8.584;2023-12-14T12:13:19;5.72;86.62
66522;SHT31;53349;53.538;8.584;2023-12-14T12:15:45;5.70;86.23
66522;SHT31;53349;53.538;8.584;2023-12-14T12:18:13;5.72;86.48
66522;SHT31;53349;53.538;8.584;2023-12-14T12:20:38;5.73;86.54
66522;SHT31;53349;53.538;8.584;2023-12-14T12:23:06;5.65;86.24
66522;SHT31;53349;53.538;8.584;2023-12-14T12:25:35;5.67;86.20
66522;SHT31;53349;53.538;8.584;2023-12-14T12:28:01;5.72;86.39
66522;SHT31;53349;53.538;8.584;2023-12-14T12:30:27;5.76;86.04
66522;SHT31;53349;53.538;8.584;2023-12-14T12:32:53;5.66;85.80
66522;SHT31;53349;53.538;8.584;2023-12-14T12:35:19;5.72;85.80
66522;SHT31;53349;53.538;8.584;2023-12-14T12:37:45;5.69;86.02
66522;SHT31;53349;53.538;8.584;2023-12-14T12:40:11;5.72;86.25
66522;SHT31;53349;53.538;8.584;2023-12-14T12:42:36;5.74;85.94
66522;SHT31;53349;53.538;8.584;2023-12-14T12:45:03;5.74;86.06
66522;SHT31;53349;53.538;8.584;2023-12-14T12:47:28;5.77;85.97
66522;SHT31;53349;53.538;8.584;2023-12-14T12:49:54;5.72;86.00
66522;SHT31;53349;53.538;8.584;2023-12-14T12:52:19;5.62;86.24
66522;SHT31;53349;53.538;8.584;2023-12-14T12:54:44;5.65;86.16
66522;SHT31;53349;53.538;8.584;2023-12-14T12:57:10;5.66;86.28
66522;SHT31;53349;53.538;8.584;2023-12-14T12:59:35;5.69;86.35
66522;SHT31;53349;53.538;8.584;2023-12-14T13:02:02;5.69;85.98
66522;SHT31;53349;53.538;8.584;2023-12-14T13:04:28;5.73;85.90
66522;SHT31;53349;53.538;8.584;2023-12-14T13:06:56;5.72;85.93
66522;SHT31;53349;53.538;8.584;2023-12-14T13:09:22;5.63;86.26
66522;SHT31;53349;53.538;8.584;2023-12-14T13:11:47;5.60;86.41
66522;SHT31;53349;53.538;8.584;2023-12-14T13:14:12;5.63;86.37
66522;SHT31;53349;53.538;8.584;2023-12-14T13:16:40;5.60;86.22
66522;SHT31;53349;53.538;8.584;2023-12-14T13:19:12;5.56;86.62
66522;SHT31;53349;53.538;8.584;2023-12-14T13:21:38;5.55;86.55
66522;SHT31;53349;53.538;8.584;2023-12-14T13:24:04;5.52;86.61
66522;SHT31;53349;53.538;8.584;2023-12-14T13:26:29;5.58;86.50
66522;SHT31;53349;53.538;8.584;2023-12-14T13:28:58;5.60;86.15
66522;SHT31;53349;53.538;8.584;2023-12-14T13:31:24;5.59;86.21
66522;SHT31;53349;53.538;8.584;2023-12-14T13:33:50;5.49;86.34
66522;SHT31;53349;53.538;8.584;2023-12-14T13:36:16;5.45;86.50
66522;SHT31;53349;53.538;8.584;2023-12-14T13:38:42;5.49;86.55
66522;SHT31;53349;53.538;8.584;2023-12-14T13:41:08;5.46;86.50
66522;SHT31;53349;53.538;8.584;2023-12-14T13:43:33;5.45;86.59
66522;SHT31;53349;53.538;8.584;2023-12-14T13:45:59;5.43;86.78
66522;SHT31;53349;53.538;8.584;2023-12-14T13:48:26;5.45;86.86
66522;SHT31;53349;53.538;8.584;2023-12-14T13:50:54;5.49;86.90
66522;SHT31;53349;53.538;8.584;2023-12-14T13:53:19;5.49;86.84
66522;SHT31;53349;53.538;8.584;2023-12-14T13:55:46;5.53;86.87
66522;SHT31;53349;53.538;8.584;2023-12-14T13:58:11;5.51;86.60
66522;SHT31;53349;53.538;8.584;2023-12-14T14:00:38;5.46;86.82
66522;SHT31;53349;53.538;8.584;2023-12-14T14:03:06;5.49;86.95
66522;SHT31;53349;53.538;8.584;2023-12-14T14:05:33;5.48;86.87
66522;SHT31;53349;53.538;8.584;2023-12-14T14:07:58;5.52;86.90
66522;SHT31;53349;53.538;8.584;2023-12-14T14:10:30;5.52;86.65
66522;SHT31;53349;53.538;8.584;2023-12-14T14:12:56;5.49;86.80
66522;SHT31;53349;53.538;8.584;2023-12-14T14:15:22;5.52;86.68
66522;SHT31;53349;53.538;8.584;2023-12-14T14:17:47;5.51;86.73
66522;SHT31;53349;53.538;8.584;2023-12-14T14:20:14;5.49;86.56
66522;SHT31;53349;53.538;8.584;2023-12-14T14:22:39;5.48;86.58
66522;SHT31;53349;53.538;8.584;2023-12-14T14:25:08;5.48;86.60
66522;SHT31;53349;53.538;8.584;2023-12-14T14:27:34;5.49;86.61
66522;SHT31;53349;53.538;8.584;2023-12-14T14:29:59;5.51;86.46
66522;SHT31;53349;53.538;8.584;2023-12-14T14:32:26;5.49;86.65
66522;SHT31;53349;53.538;8.584;2023-12-14T14:34:53;5.49;86.69
66522;SHT31;53349;53.538;8.584;2023-12-14T14:37:18;5.51;86.82
66522;SHT31;53349;53.538;8.584;2023-12-14T14:39:45;5.51;86.85
66522;SHT31;53349;53.538;8.584;2023-12-14T14:42:11;5.51;86.78
66522;SHT31;53349;53.538;8.584;2023-12-14T14:44:37;5.51;86.94
66522;SHT31;53349;53.538;8.584;2023-12-14T14:47:04;5.51;86.92
66522;SHT31;53349;53.538;8.584;2023-12-14T14:49:29;5.51;86.96
66522;SHT31;53349;53.538;8.584;2023-12-14T14:51:54;5.52;86.99
66522;SHT31;53349;53.538;8.584;2023-12-14T14:54:20;5.49;86.93
66522;SHT31;53349;53.538;8.584;2023-12-14T14:56:45;5.45;86.99
66522;SHT31;53349;53.538;8.584;2023-12-14T14:59:11;5.45;87.12
66522;SHT31;53349;53.538;8.584;2023-12-14T15:01:38;5.43;87.23
66522;SHT31;53349;53.538;8.584;2023-12-14T15:04:03;5.45;87.26
66522;SHT31;53349;53.538;8.584;2023-12-14T15:06:29;5.45;87.30
66522;SHT31;53349;53.538;8.584;2023-12-14T15:08:54;5.45;87.37
66522;SHT31;53349;53.538;8.584;2023-12-14T15:11:19;5.48;87.39
66522;SHT31;53349;53.538;8.584;2023-12-14T15:13:45;5.45;87.39
66522;SHT31;53349;53.538;8.584;2023-12-14T15:16:10;5.42;87.51
66522;SHT31;53349;53.538;8.584;2023-12-14T15:18:38;5.46;87.60
66522;SHT31;53349;53.538;8.584;2023-12-14T15:21:04;5.49;87.61
66522;SHT31;53349;53.538;8.584;2023-12-14T15:23:30;5.43;87.50
66522;SHT31;53349;53.538;8.584;2023-12-14T15:25:56;5.41;87.41
66522;SHT31;53349;53.538;8.584;2023-12-14T15:28:22;5.39;87.68
66522;SHT31;53349;53.538;8.584;2023-12-14T15:30:47;5.38;87.80
66522;SHT31;53349;53.538;8.584;2023-12-14T15:33:12;5.38;87.83
66522;SHT31;53349;53.538;8.584;2023-12-14T15:35:38;5.38;88.03
66522;SHT31;53349;53.538;8.584;2023-12-14T15:38:03;5.38;87.80
66522;SHT31;53349;53.538;8.584;2023-12-14T15:40:28;5.36;87.97
66522;SHT31;53349;53.538;8.584;2023-12-14T15:42:54;5.31;87.94
66522;SHT31;53349;53.538;8.584;2023-12-14T15:45:20;5.32;88.14